sensor_id;sensor_type;location;lat;lon;timestamp;pressure;altitude;pressure_sealevel;temperature;humidity
20156;BME280;10238;49.556;10.956;2023-07-20T00:01:39;97991.16;;;18.31;100.00
20156;BME280;10238;49.556;10.956;2023-07-20T00:04:31;97991.16;;;18.31;100.00
20156;BME280;10238;49.556;10.956;2023-07-20T00:07:20;97989.53;;;18.30;100.00
20156;BME280;10238;49.556;10.956;2023-07-20T00:10:09;97994.47;;;18.33;100.00
20156;BME280;10238;49.556;10.956;2023-07-20T00:12:56;97992.81;;;18.32;100.00
20156;BME280;10238;49.556;10.956;2023-07-20T00:15:44;97992.81;;;18.32;100.00
20156;BME280;10238;49.556;10.956;2023-07-20T00:18:32;97982.03;;;18.32;100.00
20156;BME280;10238;49.556;10.956;2023-07-20T00:21:19;97990.09;;;18.32;100.00
20156;BME280;10238;49.556;10.956;2023-07-20T00:24:08;97994.06;;;18.30;100.00
20156;BME280;10238;49.556;10.956;2023-07-20T00:26:56;97992.84;;;18.26;100.00
20156;BME280;10238;49.556;10.956;2023-07-20T00:29:44;97999.66;;;18.28;100.00
20156;BME280;10238;49.556;10.956;2023-07-20T00:32:32;97989.53;;;18.24;100.00
20156;BME280;10238;49.556;10.956;2023-07-20T00:35:20;97981.25;;;18.25;100.00
20156;BME280;10238;49.556;10.956;2023-07-20T00:38:07;97973.00;;;18.20;100.00
20156;BME280;10238;49.556;10.956;2023-07-20T00:40:57;97962.66;;;18.17;100.00
20156;BME280;10238;49.556;10.956;2023-07-20T00:43:45;97960.56;;;18.19;100.00
20156;BME280;10238;49.556;10.956;2023-07-20T00:46:32;97969.25;;;18.21;100.00
20156;BME280;10238;49.556;10.956;2023-07-20T00:49:21;97968.03;;;18.17;100.00
20156;BME280;10238;49.556;10.956;2023-07-20T00:52:13;97977.31;;;18.21;100.00
20156;BME280;10238;49.556;10.956;2023-07-20T00:55:01;97968.03;;;18.17;100.00
20156;BME280;10238;49.556;10.956;2023-07-20T00:57:50;97972.16;;;18.13;100.00
20156;BME280;10238;49.556;10.956;2023-07-20T01:00:38;97979.84;;;18.10;100.00
20156;BME280;10238;49.556;10.956;2023-07-20T01:03:26;97982.53;;;18.10;100.00
20156;BME280;10238;49.556;10.956;2023-07-20T01:06:29;97985.66;;;18.07;100.00
20156;BME280;10238;49.556;10.956;2023-07-20T01:09:21;97993.31;;;18.03;100.00
20156;BME280;10238;49.556;10.956;2023-07-20T01:12:25;97991.66;;;18.02;100.00
20156;BME280;10238;49.556;10.956;2023-07-20T01:15:15;97980.91;;;18.02;100.00
20156;BME280;10238;49.556;10.956;2023-07-20T01:18:03;97990.66;;;17.97;100.00
20156;BME280;10238;49.556;10.956;2023-07-20T01:20:59;97990.00;;;17.88;100.00
20156;BME280;10238;49.556;10.956;2023-07-20T01:24:10;97996.00;;;17.90;100.00
20156;BME280;10238;49.556;10.956;2023-07-20T01:27:31;97994.16;;;17.84;100.00
20156;BME280;10238;49.556;10.956;2023-07-20T01:30:52;97998.94;;;17.82;100.00
20156;BME280;10238;49.556;10.956;2023-07-20T01:33:46;98010.72;;;17.81;100.00
20156;BME280;10238;49.556;10.956;2023-07-20T01:36:37;98013.41;;;17.81;100.00
20156;BME280;10238;49.556;10.956;2023-07-20T01:39:26;98009.69;;;17.82;100.00
20156;BME280;10238;49.556;10.956;2023-07-20T01:42:14;98011.34;;;17.83;100.00
20156;BME280;10238;49.556;10.956;2023-07-20T01:45:03;98011.13;;;17.85;100.00
20156;BME280;10238;49.556;10.956;2023-07-20T01:47:51;98004.75;;;17.79;100.00
20156;BME280;10238;49.556;10.956;2023-07-20T01:50:40;98002.84;;;17.80;100.00
20156;BME280;10238;49.556;10.956;2023-07-20T01:53:27;97997.91;;;17.83;100.00
20156;BME280;10238;49.556;10.956;2023-07-20T01:56:15;98013.19;;;17.83;100.00
20156;BME280;10238;49.556;10.956;2023-07-20T01:59:03;98002.84;;;17.80;100.00
20156;BME280;10238;49.556;10.956;2023-07-20T02:01:50;98002.03;;;17.79;100.00
20156;BME280;10238;49.556;10.956;2023-07-20T02:04:38;98010.31;;;17.78;100.00
20156;BME280;10238;49.556;10.956;2023-07-20T02:07:27;98012.38;;;17.76;100.00
20156;BME280;10238;49.556;10.956;2023-07-20T02:10:15;98022.28;;;17.75;100.00
20156;BME280;10238;49.556;10.956;2023-07-20T02:13:03;98030.97;;;17.71;100.00
20156;BME280;10238;49.556;10.956;2023-07-20T02:15:51;98035.56;;;17.70;100.00
20156;BME280;10238;49.556;10.956;2023-07-20T02:18:39;98034.72;;;17.70;100.00
20156;BME280;10238;49.556;10.956;2023-07-20T02:21:26;98027.69;;;17.69;100.00
20156;BME280;10238;49.556;10.956;2023-07-20T02:24:15;98034.09;;;17.74;100.00
20156;BME280;10238;49.556;10.956;2023-07-20T02:27:04;98031.00;;;17.77;100.00
20156;BME280;10238;49.556;10.956;2023-07-20T02:29:53;98032.22;;;17.81;100.00
20156;BME280;10238;49.556;10.956;2023-07-20T02:32:41;98038.22;;;17.83;100.00
20156;BME280;10238;49.556;10.956;2023-07-20T02:35:32;98040.91;;;17.83;100.00
20156;BME280;10238;49.556;10.956;2023-07-20T02:38:20;98041.97;;;17.82;100.00
20156;BME280;10238;49.556;10.956;2023-07-20T02:41:09;98031.00;;;17.77;100.00
20156;BME280;10238;49.556;10.956;2023-07-20T02:43:57;98023.56;;;17.79;100.00
20156;BME280;10238;49.556;10.956;2023-07-20T02:46:45;98033.06;;;17.75;100.00
20156;BME280;10238;49.556;10.956;2023-07-20T02:49:32;98033.47;;;17.72;100.00
20156;BME280;10238;49.556;10.956;2023-07-20T02:52:20;98037.59;;;17.68;100.00
20156;BME280;10238;49.556;10.956;2023-07-20T02:55:09;98033.47;;;17.59;100.00
20156;BME280;10238;49.556;10.956;2023-07-20T02:58:02;98030.59;;;17.54;100.00
20156;BME280;10238;49.556;10.956;2023-07-20T03:00:49;98043.81;;;17.49;100.00
20156;BME280;10238;49.556;10.956;2023-07-20T03:03:39;98046.69;;;17.48;100.00
20156;BME280;10238;49.556;10.956;2023-07-20T03:06:27;98054.34;;;17.44;100.00
20156;BME280;10238;49.556;10.956;2023-07-20T03:09:15;98061.13;;;17.40;100.00
20156;BME280;10238;49.556;10.956;2023-07-20T03:12:03;98054.91;;;17.33;100.00
20156;BME280;10238;49.556;10.956;2023-07-20T03:14:53;98061.09;;;17.27;100.00
20156;BME280;10238;49.556;10.956;2023-07-20T03:17:43;98056.78;;;17.26;100.00
20156;BME280;10238;49.556;10.956;2023-07-20T03:20:31;98062.75;;;17.21;100.00
20156;BME280;10238;49.556;10.956;2023-07-20T03:23:19;98066.25;;;17.15;100.00
20156;BME280;10238;49.556;10.956;2023-07-20T03:26:07;98073.91;;;17.12;100.00
20156;BME280;10238;49.556;10.956;2023-07-20T03:28:55;98072.81;;;17.06;100.00
20156;BME280;10238;49.556;10.956;2023-07-20T03:31:44;98076.75;;;17.04;100.00
20156;BME280;10238;49.556;10.956;2023-07-20T03:34:32;98074.91;;;17.04;100.00
20156;BME280;10238;49.556;10.956;2023-07-20T03:37:20;98084.56;;;16.99;100.00
20156;BME280;10238;49.556;10.956;2023-07-20T03:40:09;98085.81;;;16.96;100.00
20156;BME280;10238;49.556;10.956;2023-07-20T03:42:56;98085.63;;;16.98;100.00
20156;BME280;10238;49.556;10.956;2023-07-20T03:45:44;98083.34;;;16.95;100.00
20156;BME280;10238;49.556;10.956;2023-07-20T03:48:35;98093.66;;;16.91;100.00
20156;BME280;10238;49.556;10.956;2023-07-20T03:51:23;98097.16;;;16.92;100.00
20156;BME280;10238;49.556;10.956;2023-07-20T03:54:10;98094.47;;;16.92;100.00
20156;BME280;10238;49.556;10.956;2023-07-20T03:56:58;98092.81;;;16.91;100.00
20156;BME280;10238;49.556;10.956;2023-07-20T03:59:48;98103.56;;;16.91;100.00
20156;BME280;10238;49.556;10.956;2023-07-20T04:02:36;98100.47;;;16.94;100.00
20156;BME280;10238;49.556;10.956;2023-07-20T04:05:25;98101.13;;;16.96;100.00
20156;BME280;10238;49.556;10.956;2023-07-20T04:08:13;98107.69;;;16.93;100.00
20156;BME280;10238;49.556;10.956;2023-07-20T04:11:01;98108.53;;;16.94;100.00
20156;BME280;10238;49.556;10.956;2023-07-20T04:13:49;98111.88;;;16.96;100.00
20156;BME280;10238;49.556;10.956;2023-07-20T04:16:37;98107.31;;;16.96;100.00
20156;BME280;10238;49.556;10.956;2023-07-20T04:19:25;98118.47;;;17.00;100.00
20156;BME280;10238;49.556;10.956;2023-07-20T04:22:14;98111.03;;;17.02;100.00
20156;BME280;10238;49.556;10.956;2023-07-20T04:25:03;98118.69;;;17.05;100.00
20156;BME280;10238;49.556;10.956;2023-07-20T04:27:51;98118.50;;;17.06;100.00
20156;BME280;10238;49.556;10.956;2023-07-20T04:30:40;98121.81;;;17.08;100.00
20156;BME280;10238;49.556;10.956;2023-07-20T04:33:27;98115.19;;;17.11;100.00
20156;BME280;10238;49.556;10.956;2023-07-20T04:36:15;98126.16;;;17.09;100.00
20156;BME280;10238;49.556;10.956;2023-07-20T04:39:10;98119.56;;;17.12;100.00
20156;BME280;10238;49.556;10.956;2023-07-20T04:42:16;98122.25;;;17.12;100.00
20156;BME280;10238;49.556;10.956;2023-07-20T04:45:05;98116.88;;;17.12;100.00
20156;BME280;10238;49.556;10.956;2023-07-20T04:47:53;98128.88;;;17.16;100.00
20156;BME280;10238;49.556;10.956;2023-07-20T04:50:41;98128.47;;;17.19;100.00
20156;BME280;10238;49.556;10.956;2023-07-20T04:53:29;98124.34;;;17.23;100.00
20156;BME280;10238;49.556;10.956;2023-07-20T04:56:19;98127.66;;;17.25;100.00
20156;BME280;10238;49.556;10.956;2023-07-20T04:59:10;98127.88;;;17.30;100.00
20156;BME280;10238;49.556;10.956;2023-07-20T05:01:58;98129.34;;;17.33;100.00
20156;BME280;10238;49.556;10.956;2023-07-20T05:04:46;98134.28;;;17.36;100.00
20156;BME280;10238;49.556;10.956;2023-07-20T05:07:33;98127.69;;;17.38;100.00
20156;BME280;10238;49.556;10.956;2023-07-20T05:10:21;98126.91;;;17.44;100.00
20156;BME280;10238;49.556;10.956;2023-07-20T05:13:10;98131.50;;;17.50;100.00
20156;BME280;10238;49.556;10.956;2023-07-20T05:15:58;98130.63;;;17.56;100.00
20156;BME280;10238;49.556;10.956;2023-07-20T05:18:45;98130.44;;;17.58;100.00
20156;BME280;10238;49.556;10.956;2023-07-20T05:21:33;98133.97;;;17.58;100.00
20156;BME280;10238;49.556;10.956;2023-07-20T05:24:21;98130.88;;;17.61;100.00
20156;BME280;10238;49.556;10.956;2023-07-20T05:27:08;98138.72;;;17.63;100.00
20156;BME280;10238;49.556;10.956;2023-07-20T05:29:58;98138.13;;;17.67;100.00
20156;BME280;10238;49.556;10.956;2023-07-20T05:32:46;98133.56;;;17.74;100.00
20156;BME280;10238;49.556;10.956;2023-07-20T05:35:37;98139.59;;;17.76;100.00
20156;BME280;10238;49.556;10.956;2023-07-20T05:38:25;98142.28;;;17.76;100.00
20156;BME280;10238;49.556;10.956;2023-07-20T05:41:12;98135.66;;;17.79;100.00
20156;BME280;10238;49.556;10.956;2023-07-20T05:44:00;98132.34;;;17.83;100.00
20156;BME280;10238;49.556;10.956;2023-07-20T05:46:49;98136.88;;;17.83;100.00
20156;BME280;10238;49.556;10.956;2023-07-20T05:49:43;98137.94;;;17.82;100.00
20156;BME280;10238;49.556;10.956;2023-07-20T05:52:31;98138.78;;;17.82;100.00
20156;BME280;10238;49.556;10.956;2023-07-20T05:55:18;98139.81;;;17.88;100.00
20156;BME280;10238;49.556;10.956;2023-07-20T05:58:06;98143.53;;;17.93;100.00
20156;BME280;10238;49.556;10.956;2023-07-20T06:00:54;98143.34;;;18.01;100.00
20156;BME280;10238;49.556;10.956;2023-07-20T06:03:43;98135.47;;;18.06;100.00
20156;BME280;10238;49.556;10.956;2023-07-20T06:06:31;98140.22;;;18.11;100.00
20156;BME280;10238;49.556;10.956;2023-07-20T06:09:18;98133.81;;;18.18;100.00
20156;BME280;10238;49.556;10.956;2023-07-20T06:12:09;98136.47;;;18.31;100.00
20156;BME280;10238;49.556;10.956;2023-07-20T06:14:56;98130.69;;;18.41;100.00
20156;BME280;10238;49.556;10.956;2023-07-20T06:17:44;98140.41;;;18.48;100.00
20156;BME280;10238;49.556;10.956;2023-07-20T06:20:33;98138.53;;;18.62;100.00
20156;BME280;10238;49.556;10.956;2023-07-20T06:23:20;98132.50;;;18.73;100.00
20156;BME280;10238;49.556;10.956;2023-07-20T06:26:08;98121.50;;;18.81;100.00
20156;BME280;10238;49.556;10.956;2023-07-20T06:28:56;98120.63;;;18.93;100.00
20156;BME280;10238;49.556;10.956;2023-07-20T06:31:45;98120.16;;;19.09;100.00
20156;BME280;10238;49.556;10.956;2023-07-20T06:34:32;98121.53;;;19.25;100.00
20156;BME280;10238;49.556;10.956;2023-07-20T06:37:24;98112.13;;;19.41;100.00
20156;BME280;10238;49.556;10.956;2023-07-20T06:40:12;98122.41;;;19.57;100.00
20156;BME280;10238;49.556;10.956;2023-07-20T06:43:03;98117.72;;;19.77;100.00
20156;BME280;10238;49.556;10.956;2023-07-20T06:45:53;98108.66;;;19.96;100.00
20156;BME280;10238;49.556;10.956;2023-07-20T06:48:41;98109.78;;;20.13;100.00
20156;BME280;10238;49.556;10.956;2023-07-20T06:51:32;98104.00;;;20.34;100.00
20156;BME280;10238;49.556;10.956;2023-07-20T06:54:22;98108.81;;;20.50;100.00
20156;BME280;10238;49.556;10.956;2023-07-20T06:57:09;98101.91;;;20.72;100.00
20156;BME280;10238;49.556;10.956;2023-07-20T07:00:00;98096.94;;;20.87;100.00
20156;BME280;10238;49.556;10.956;2023-07-20T07:02:48;98099.22;;;21.08;100.00
20156;BME280;10238;49.556;10.956;2023-07-20T07:05:37;98100.41;;;21.30;100.00
20156;BME280;10238;49.556;10.956;2023-07-20T07:08:25;98088.94;;;21.46;100.00
20156;BME280;10238;49.556;10.956;2023-07-20T07:11:14;98097.94;;;21.58;100.00
20156;BME280;10238;49.556;10.956;2023-07-20T07:14:02;98102.00;;;21.79;100.00
20156;BME280;10238;49.556;10.956;2023-07-20T07:16:50;98082.38;;;21.95;100.00
20156;BME280;10238;49.556;10.956;2023-07-20T07:19:43;98076.25;;;21.99;100.00
20156;BME280;10238;49.556;10.956;2023-07-20T07:22:34;98084.16;;;22.12;100.00
20156;BME280;10238;49.556;10.956;2023-07-20T07:25:22;98072.16;;;22.31;100.00
20156;BME280;10238;49.556;10.956;2023-07-20T07:28:12;98081.22;;;22.48;100.00
20156;BME280;10238;49.556;10.956;2023-07-20T07:31:00;98075.59;;;22.61;100.00
20156;BME280;10238;49.556;10.956;2023-07-20T07:33:48;98077.78;;;22.87;100.00
20156;BME280;10238;49.556;10.956;2023-07-20T07:36:36;98074.47;;;22.97;100.00
20156;BME280;10238;49.556;10.956;2023-07-20T07:39:24;98074.28;;;23.15;100.00
20156;BME280;10238;49.556;10.956;2023-07-20T07:42:20;98073.41;;;23.38;100.00
20156;BME280;10238;49.556;10.956;2023-07-20T07:45:12;98077.22;;;23.53;99.19
20156;BME280;10238;49.556;10.956;2023-07-20T07:48:00;98080.53;;;23.72;97.39
20156;BME280;10238;49.556;10.956;2023-07-20T07:50:48;98080.91;;;23.92;94.96
20156;BME280;10238;49.556;10.956;2023-07-20T07:53:39;98081.25;;;23.95;93.11
20156;BME280;10238;49.556;10.956;2023-07-20T07:56:27;98086.34;;;23.92;92.83
20156;BME280;10238;49.556;10.956;2023-07-20T07:59:14;98078.88;;;23.99;90.66
20156;BME280;10238;49.556;10.956;2023-07-20T08:02:05;98079.28;;;24.24;87.21
20156;BME280;10238;49.556;10.956;2023-07-20T08:04:53;98079.09;;;24.47;87.14
20156;BME280;10238;49.556;10.956;2023-07-20T08:07:40;98083.09;;;24.61;82.17
20156;BME280;10238;49.556;10.956;2023-07-20T08:10:28;98079.47;;;24.72;78.26
20156;BME280;10238;49.556;10.956;2023-07-20T08:13:16;98075.66;;;24.89;77.31
20156;BME280;10238;49.556;10.956;2023-07-20T08:16:04;98076.41;;;25.06;76.97
20156;BME280;10238;49.556;10.956;2023-07-20T08:18:53;98082.50;;;25.35;74.88
20156;BME280;10238;49.556;10.956;2023-07-20T08:21:41;98076.03;;;25.41;71.69
20156;BME280;10238;49.556;10.956;2023-07-20T08:24:28;98082.78;;;25.39;73.55
20156;BME280;10238;49.556;10.956;2023-07-20T08:27:16;98076.75;;;25.58;71.69
20156;BME280;10238;49.556;10.956;2023-07-20T08:30:06;98075.31;;;25.51;68.60
20156;BME280;10238;49.556;10.956;2023-07-20T08:32:55;98074.19;;;25.73;68.35
20156;BME280;10238;49.556;10.956;2023-07-20T08:35:44;98075.50;;;25.97;68.73
20156;BME280;10238;49.556;10.956;2023-07-20T08:38:31;98081.78;;;25.98;66.03
20156;BME280;10238;49.556;10.956;2023-07-20T08:41:23;98081.94;;;26.18;65.04
20156;BME280;10238;49.556;10.956;2023-07-20T08:44:12;98080.75;;;26.40;63.67
20156;BME280;10238;49.556;10.956;2023-07-20T08:47:02;98079.34;;;26.69;60.93
20156;BME280;10238;49.556;10.956;2023-07-20T08:49:53;98078.28;;;26.75;58.73
20156;BME280;10238;49.556;10.956;2023-07-20T08:52:43;98081.03;;;26.75;61.25
20156;BME280;10238;49.556;10.956;2023-07-20T08:55:31;98078.47;;;27.10;59.39
20156;BME280;10238;49.556;10.956;2023-07-20T08:58:20;98072.63;;;26.92;58.77
20156;BME280;10238;49.556;10.956;2023-07-20T09:01:08;98077.72;;;27.25;59.00
20156;BME280;10238;49.556;10.956;2023-07-20T09:03:57;98074.81;;;27.57;58.09
20156;BME280;10238;49.556;10.956;2023-07-20T09:06:45;98078.09;;;27.59;56.95
20156;BME280;10238;49.556;10.956;2023-07-20T09:09:40;98083.53;;;27.49;57.41
20156;BME280;10238;49.556;10.956;2023-07-20T09:12:28;98077.00;;;27.55;56.89
20156;BME280;10238;49.556;10.956;2023-07-20T09:15:17;98071.56;;;27.85;55.12
20156;BME280;10238;49.556;10.956;2023-07-20T09:18:05;98073.25;;;27.91;53.16
20156;BME280;10238;49.556;10.956;2023-07-20T09:20:54;98074.63;;;27.98;53.99
20156;BME280;10238;49.556;10.956;2023-07-20T09:23:46;98068.91;;;28.10;52.73
20156;BME280;10238;49.556;10.956;2023-07-20T09:26:41;98068.88;;;28.40;52.69
20156;BME280;10238;49.556;10.956;2023-07-20T09:29:30;98072.16;;;28.62;50.44
20156;BME280;10238;49.556;10.956;2023-07-20T09:32:22;98070.50;;;28.66;51.70
20156;BME280;10238;49.556;10.956;2023-07-20T09:35:14;98069.91;;;28.89;50.49
20156;BME280;10238;49.556;10.956;2023-07-20T09:38:05;98071.06;;;28.63;49.27
20156;BME280;10238;49.556;10.956;2023-07-20T09:40:56;98068.34;;;28.63;48.94
20156;BME280;10238;49.556;10.956;2023-07-20T09:43:49;98065.56;;;28.73;49.58
20156;BME280;10238;49.556;10.956;2023-07-20T09:46:45;98056.16;;;28.99;49.06
20156;BME280;10238;49.556;10.956;2023-07-20T09:49:40;98060.50;;;29.20;46.52
20156;BME280;10238;49.556;10.956;2023-07-20T09:52:31;98060.41;;;29.35;45.94
20156;BME280;10238;49.556;10.956;2023-07-20T09:55:22;98066.81;;;29.15;46.21
20156;BME280;10238;49.556;10.956;2023-07-20T09:58:12;98078.91;;;28.89;46.80
20156;BME280;10238;49.556;10.956;2023-07-20T10:01:05;98060.53;;;29.10;47.32
20156;BME280;10238;49.556;10.956;2023-07-20T10:03:58;98058.22;;;29.37;46.59
20156;BME280;10238;49.556;10.956;2023-07-20T10:06:49;98049.88;;;29.57;45.37
20156;BME280;10238;49.556;10.956;2023-07-20T10:09:41;98049.63;;;29.54;43.22
20156;BME280;10238;49.556;10.956;2023-07-20T10:12:31;98050.56;;;29.29;45.28
20156;BME280;10238;49.556;10.956;2023-07-20T10:15:24;98046.38;;;29.47;45.18
20156;BME280;10238;49.556;10.956;2023-07-20T10:18:28;98053.13;;;29.64;45.34
20156;BME280;10238;49.556;10.956;2023-07-20T10:21:18;98041.78;;;29.81;43.63
20156;BME280;10238;49.556;10.956;2023-07-20T10:24:11;98045.47;;;30.05;43.07
20156;BME280;10238;49.556;10.956;2023-07-20T10:26:59;98045.16;;;30.06;42.23
20156;BME280;10238;49.556;10.956;2023-07-20T10:29:48;98043.97;;;30.22;42.08
20156;BME280;10238;49.556;10.956;2023-07-20T10:32:36;98035.16;;;30.25;42.28
20156;BME280;10238;49.556;10.956;2023-07-20T10:35:25;98030.53;;;30.49;42.12
20156;BME280;10238;49.556;10.956;2023-07-20T10:38:12;98029.91;;;30.57;40.62
20156;BME280;10238;49.556;10.956;2023-07-20T10:41:01;98019.13;;;30.61;40.63
20156;BME280;10238;49.556;10.956;2023-07-20T10:43:49;98024.34;;;30.62;40.31
20156;BME280;10238;49.556;10.956;2023-07-20T10:46:44;98025.50;;;30.56;41.00
20156;BME280;10238;49.556;10.956;2023-07-20T10:49:34;98022.72;;;30.33;39.97
20156;BME280;10238;49.556;10.956;2023-07-20T10:52:23;98024.56;;;30.09;39.85
20156;BME280;10238;49.556;10.956;2023-07-20T10:55:14;98018.09;;;30.28;40.64
20156;BME280;10238;49.556;10.956;2023-07-20T10:58:10;98010.09;;;30.37;41.79
20156;BME280;10238;49.556;10.956;2023-07-20T11:01:01;98003.81;;;30.83;40.57
20156;BME280;10238;49.556;10.956;2023-07-20T11:03:50;98002.72;;;31.03;40.62
20156;BME280;10238;49.556;10.956;2023-07-20T11:06:43;97999.78;;;30.76;40.42
20156;BME280;10238;49.556;10.956;2023-07-20T11:09:36;97997.66;;;30.91;41.67
20156;BME280;10238;49.556;10.956;2023-07-20T11:12:25;97995.13;;;31.18;40.60
20156;BME280;10238;49.556;10.956;2023-07-20T11:15:12;97998.78;;;31.33;39.95
20156;BME280;10238;49.556;10.956;2023-07-20T11:18:12;98003.81;;;31.26;40.87
20156;BME280;10238;49.556;10.956;2023-07-20T11:21:00;98002.44;;;31.04;39.21
20156;BME280;10238;49.556;10.956;2023-07-20T11:23:48;97993.69;;;31.02;40.59
20156;BME280;10238;49.556;10.956;2023-07-20T11:26:43;97992.88;;;31.02;40.22
20156;BME280;10238;49.556;10.956;2023-07-20T11:29:31;97989.34;;;30.78;39.44
20156;BME280;10238;49.556;10.956;2023-07-20T11:32:21;97995.72;;;30.68;39.45
20156;BME280;10238;49.556;10.956;2023-07-20T11:35:12;97994.03;;;30.72;37.96
20156;BME280;10238;49.556;10.956;2023-07-20T11:38:00;98000.09;;;30.74;41.10
20156;BME280;10238;49.556;10.956;2023-07-20T11:40:48;97988.41;;;30.87;38.33
20156;BME280;10238;49.556;10.956;2023-07-20T11:43:38;97996.28;;;30.94;37.63
20156;BME280;10238;49.556;10.956;2023-07-20T11:46:28;97982.84;;;30.92;38.39
20156;BME280;10238;49.556;10.956;2023-07-20T11:49:16;97977.16;;;30.84;38.04
20156;BME280;10238;49.556;10.956;2023-07-20T11:52:06;97978.53;;;30.86;37.69
20156;BME280;10238;49.556;10.956;2023-07-20T11:54:55;97976.97;;;30.52;38.18
20156;BME280;10238;49.556;10.956;2023-07-20T11:58:01;97972.78;;;30.83;40.24
20156;BME280;10238;49.556;10.956;2023-07-20T12:00:51;97976.03;;;31.08;38.88
20156;BME280;10238;49.556;10.956;2023-07-20T12:03:39;97974.47;;;31.02;37.62
20156;BME280;10238;49.556;10.956;2023-07-20T12:06:28;97973.16;;;30.76;37.35
20156;BME280;10238;49.556;10.956;2023-07-20T12:09:17;97968.31;;;30.63;37.49
20156;BME280;10238;49.556;10.956;2023-07-20T12:12:10;97978.50;;;30.39;37.76
20156;BME280;10238;49.556;10.956;2023-07-20T12:15:15;97973.44;;;30.23;39.12
20156;BME280;10238;49.556;10.956;2023-07-20T12:18:05;97971.75;;;29.98;38.14
20156;BME280;10238;49.556;10.956;2023-07-20T12:20:59;97967.31;;;30.02;38.66
20156;BME280;10238;49.556;10.956;2023-07-20T12:23:47;97975.69;;;29.87;38.15
20156;BME280;10238;49.556;10.956;2023-07-20T12:26:35;97966.44;;;30.07;39.07
20156;BME280;10238;49.556;10.956;2023-07-20T12:29:23;97970.88;;;30.31;38.29
20156;BME280;10238;49.556;10.956;2023-07-20T12:32:13;97963.25;;;30.28;38.31
20156;BME280;10238;49.556;10.956;2023-07-20T12:35:02;97968.09;;;30.36;37.87
20156;BME280;10238;49.556;10.956;2023-07-20T12:37:50;97963.63;;;30.45;37.64
20156;BME280;10238;49.556;10.956;2023-07-20T12:40:38;97950.47;;;30.42;38.88
20156;BME280;10238;49.556;10.956;2023-07-20T12:43:26;97942.19;;;30.47;38.72
20156;BME280;10238;49.556;10.956;2023-07-20T12:46:14;97954.56;;;30.68;38.40
20156;BME280;10238;49.556;10.956;2023-07-20T12:49:02;97949.56;;;30.75;37.52
20156;BME280;10238;49.556;10.956;2023-07-20T12:51:51;97936.66;;;30.94;38.15
20156;BME280;10238;49.556;10.956;2023-07-20T12:54:39;97943.00;;;30.95;37.99
20156;BME280;10238;49.556;10.956;2023-07-20T12:57:27;97938.63;;;31.12;37.47
20156;BME280;10238;49.556;10.956;2023-07-20T13:00:17;97929.63;;;31.26;35.83
20156;BME280;10238;49.556;10.956;2023-07-20T13:03:06;97929.50;;;31.36;36.17
20156;BME280;10238;49.556;10.956;2023-07-20T13:05:56;97930.91;;;31.52;35.40
20156;BME280;10238;49.556;10.956;2023-07-20T13:08:49;97923.78;;;31.51;35.71
20156;BME280;10238;49.556;10.956;2023-07-20T13:11:37;97929.22;;;31.37;36.58
20156;BME280;10238;49.556;10.956;2023-07-20T13:14:25;97928.69;;;31.54;36.02
20156;BME280;10238;49.556;10.956;2023-07-20T13:17:13;97922.81;;;31.42;37.06
20156;BME280;10238;49.556;10.956;2023-07-20T13:20:01;97921.22;;;31.73;36.01
20156;BME280;10238;49.556;10.956;2023-07-20T13:22:49;97918.72;;;31.58;35.05
20156;BME280;10238;49.556;10.956;2023-07-20T13:25:38;97919.91;;;31.52;34.99
20156;BME280;10238;49.556;10.956;2023-07-20T13:28:26;97919.00;;;31.56;35.18
20156;BME280;10238;49.556;10.956;2023-07-20T13:31:15;97910.00;;;31.69;35.42
20156;BME280;10238;49.556;10.956;2023-07-20T13:34:04;97913.06;;;32.00;34.58
20156;BME280;10238;49.556;10.956;2023-07-20T13:36:53;97906.28;;;31.79;34.67
20156;BME280;10238;49.556;10.956;2023-07-20T13:39:41;97903.38;;;31.89;34.77
20156;BME280;10238;49.556;10.956;2023-07-20T13:42:32;97900.16;;;32.14;33.82
20156;BME280;10238;49.556;10.956;2023-07-20T13:45:21;97896.28;;;32.28;34.87
20156;BME280;10238;49.556;10.956;2023-07-20T13:48:09;97897.72;;;32.39;34.58
20156;BME280;10238;49.556;10.956;2023-07-20T13:50:57;97900.69;;;32.43;34.41
20156;BME280;10238;49.556;10.956;2023-07-20T13:53:47;97903.03;;;32.49;34.97
20156;BME280;10238;49.556;10.956;2023-07-20T13:56:38;97889.25;;;32.76;37.10
20156;BME280;10238;49.556;10.956;2023-07-20T13:59:29;97878.50;;;33.02;34.51
20156;BME280;10238;49.556;10.956;2023-07-20T14:02:17;97886.53;;;33.12;33.21
20156;BME280;10238;49.556;10.956;2023-07-20T14:05:09;97880.78;;;33.00;33.23
20156;BME280;10238;49.556;10.956;2023-07-20T14:08:00;97891.63;;;32.69;33.15
20156;BME280;10238;49.556;10.956;2023-07-20T14:10:47;97883.94;;;32.12;33.12
20156;BME280;10238;49.556;10.956;2023-07-20T14:13:38;97887.97;;;31.88;34.74
20156;BME280;10238;49.556;10.956;2023-07-20T14:16:34;97878.44;;;32.12;35.66
20156;BME280;10238;49.556;10.956;2023-07-20T14:19:23;97878.25;;;32.49;34.79
20156;BME280;10238;49.556;10.956;2023-07-20T14:22:28;97876.53;;;32.40;35.45
20156;BME280;10238;49.556;10.956;2023-07-20T14:25:23;97871.66;;;32.37;35.38
20156;BME280;10238;49.556;10.956;2023-07-20T14:28:15;97875.31;;;32.46;34.49
20156;BME280;10238;49.556;10.956;2023-07-20T14:31:03;97870.00;;;32.49;33.90
20156;BME280;10238;49.556;10.956;2023-07-20T14:33:52;97875.28;;;32.59;32.95
20156;BME280;10238;49.556;10.956;2023-07-20T14:36:40;97869.00;;;32.59;35.00
20156;BME280;10238;49.556;10.956;2023-07-20T14:39:28;97869.38;;;32.66;35.75
20156;BME280;10238;49.556;10.956;2023-07-20T14:42:15;97865.25;;;32.77;34.11